sensor_id;sensor_type;location;lat;lon;timestamp;P1;durP1;ratioP1;P2;durP2;ratioP2
62574;SDS011;53112;45.602;11.904;2022-10-16T00:00:31;37.00;;;23.30;;
62574;SDS011;53112;45.602;11.904;2022-10-16T00:02:59;39.97;;;24.60;;
62574;SDS011;53112;45.602;11.904;2022-10-16T00:05:25;40.25;;;24.08;;
62574;SDS011;53112;45.602;11.904;2022-10-16T00:07:51;39.55;;;24.67;;
62574;SDS011;53112;45.602;11.904;2022-10-16T00:10:17;34.05;;;22.67;;
62574;SDS011;53112;45.602;11.904;2022-10-16T00:12:43;32.88;;;21.63;;
62574;SDS011;53112;45.602;11.904;2022-10-16T00:15:09;37.50;;;23.45;;
62574;SDS011;53112;45.602;11.904;2022-10-16T00:17:35;38.47;;;22.67;;
62574;SDS011;53112;45.602;11.904;2022-10-16T00:20:01;32.83;;;20.33;;
62574;SDS011;53112;45.602;11.904;2022-10-16T00:22:27;37.67;;;22.17;;
62574;SDS011;53112;45.602;11.904;2022-10-16T00:24:52;34.35;;;22.30;;
62574;SDS011;53112;45.602;11.904;2022-10-16T00:27:18;32.10;;;20.95;;
62574;SDS011;53112;45.602;11.904;2022-10-16T00:29:48;36.08;;;22.48;;
62574;SDS011;53112;45.602;11.904;2022-10-16T00:32:18;34.97;;;21.05;;
62574;SDS011;53112;45.602;11.904;2022-10-16T00:34:45;36.45;;;21.73;;
62574;SDS011;53112;45.602;11.904;2022-10-16T00:37:12;35.35;;;21.55;;
62574;SDS011;53112;45.602;11.904;2022-10-16T00:39:39;43.28;;;24.58;;
62574;SDS011;53112;45.602;11.904;2022-10-16T00:42:05;38.83;;;24.63;;
62574;SDS011;53112;45.602;11.904;2022-10-16T00:44:47;36.72;;;23.10;;
62574;SDS011;53112;45.602;11.904;2022-10-16T00:52:18;40.40;;;24.38;;
62574;SDS011;53112;45.602;11.904;2022-10-16T00:54:45;32.53;;;21.00;;
62574;SDS011;53112;45.602;11.904;2022-10-16T00:57:12;36.13;;;21.25;;
62574;SDS011;53112;45.602;11.904;2022-10-16T00:59:40;35.83;;;22.20;;
62574;SDS011;53112;45.602;11.904;2022-10-16T01:02:08;38.78;;;23.75;;
62574;SDS011;53112;45.602;11.904;2022-10-16T01:04:37;31.00;;;20.00;;
62574;SDS011;53112;45.602;11.904;2022-10-16T01:15:44;33.25;;;21.35;;
62574;SDS011;53112;45.602;11.904;2022-10-16T01:20:50;37.90;;;23.70;;
62574;SDS011;53112;45.602;11.904;2022-10-16T01:23:43;30.33;;;19.58;;
62574;SDS011;53112;45.602;11.904;2022-10-16T01:26:36;35.90;;;22.75;;
62574;SDS011;53112;45.602;11.904;2022-10-16T01:29:26;34.45;;;21.42;;
62574;SDS011;53112;45.602;11.904;2022-10-16T01:35:11;39.33;;;24.27;;
62574;SDS011;53112;45.602;11.904;2022-10-16T01:37:48;33.97;;;21.15;;
62574;SDS011;53112;45.602;11.904;2022-10-16T01:40:28;36.33;;;23.10;;
62574;SDS011;53112;45.602;11.904;2022-10-16T01:43:03;34.47;;;21.85;;
62574;SDS011;53112;45.602;11.904;2022-10-16T01:45:33;38.67;;;22.65;;
62574;SDS011;53112;45.602;11.904;2022-10-16T01:48:01;40.20;;;23.67;;
62574;SDS011;53112;45.602;11.904;2022-10-16T01:50:33;38.67;;;22.30;;
62574;SDS011;53112;45.602;11.904;2022-10-16T01:53:05;34.78;;;21.08;;
62574;SDS011;53112;45.602;11.904;2022-10-16T01:55:36;38.13;;;23.00;;
62574;SDS011;53112;45.602;11.904;2022-10-16T01:58:10;29.48;;;19.33;;
62574;SDS011;53112;45.602;11.904;2022-10-16T02:00:39;31.50;;;20.85;;
62574;SDS011;53112;45.602;11.904;2022-10-16T02:03:09;39.78;;;23.83;;
62574;SDS011;53112;45.602;11.904;2022-10-16T02:05:56;38.63;;;22.98;;
62574;SDS011;53112;45.602;11.904;2022-10-16T02:08:25;37.85;;;22.25;;
62574;SDS011;53112;45.602;11.904;2022-10-16T02:10:57;41.97;;;24.80;;
62574;SDS011;53112;45.602;11.904;2022-10-16T02:13:28;42.38;;;25.15;;
62574;SDS011;53112;45.602;11.904;2022-10-16T02:16:02;45.72;;;27.35;;
62574;SDS011;53112;45.602;11.904;2022-10-16T02:18:28;38.92;;;23.92;;
62574;SDS011;53112;45.602;11.904;2022-10-16T02:21:04;34.25;;;22.95;;
62574;SDS011;53112;45.602;11.904;2022-10-16T02:26:17;46.70;;;26.98;;
62574;SDS011;53112;45.602;11.904;2022-10-16T02:28:55;40.33;;;23.33;;
62574;SDS011;53112;45.602;11.904;2022-10-16T02:31:27;43.38;;;25.13;;
62574;SDS011;53112;45.602;11.904;2022-10-16T02:33:57;49.97;;;28.70;;
62574;SDS011;53112;45.602;11.904;2022-10-16T02:36:25;44.72;;;25.73;;
62574;SDS011;53112;45.602;11.904;2022-10-16T02:38:52;48.70;;;28.48;;
62574;SDS011;53112;45.602;11.904;2022-10-16T02:41:20;45.83;;;26.88;;
62574;SDS011;53112;45.602;11.904;2022-10-16T02:43:47;39.53;;;24.58;;
62574;SDS011;53112;45.602;11.904;2022-10-16T02:46:14;39.42;;;23.80;;
62574;SDS011;53112;45.602;11.904;2022-10-16T02:48:40;44.40;;;27.15;;
62574;SDS011;53112;45.602;11.904;2022-10-16T02:51:06;43.55;;;25.75;;
62574;SDS011;53112;45.602;11.904;2022-10-16T02:53:32;39.83;;;24.10;;
62574;SDS011;53112;45.602;11.904;2022-10-16T02:55:58;36.10;;;22.80;;
62574;SDS011;53112;45.602;11.904;2022-10-16T02:58:24;38.70;;;23.17;;
62574;SDS011;53112;45.602;11.904;2022-10-16T03:00:50;41.13;;;25.02;;
62574;SDS011;53112;45.602;11.904;2022-10-16T03:03:16;36.80;;;22.70;;
62574;SDS011;53112;45.602;11.904;2022-10-16T03:05:42;36.28;;;22.38;;
62574;SDS011;53112;45.602;11.904;2022-10-16T03:08:11;39.53;;;24.67;;
62574;SDS011;53112;45.602;11.904;2022-10-16T03:10:37;38.40;;;23.30;;
62574;SDS011;53112;45.602;11.904;2022-10-16T03:13:03;40.65;;;22.73;;
62574;SDS011;53112;45.602;11.904;2022-10-16T03:15:29;42.88;;;26.42;;
62574;SDS011;53112;45.602;11.904;2022-10-16T03:17:58;42.58;;;25.42;;
62574;SDS011;53112;45.602;11.904;2022-10-16T03:20:25;45.92;;;27.13;;
62574;SDS011;53112;45.602;11.904;2022-10-16T03:22:51;41.90;;;25.80;;
62574;SDS011;53112;45.602;11.904;2022-10-16T03:25:18;44.72;;;26.05;;
62574;SDS011;53112;45.602;11.904;2022-10-16T03:27:44;43.03;;;25.40;;
62574;SDS011;53112;45.602;11.904;2022-10-16T03:30:09;44.60;;;26.75;;
62574;SDS011;53112;45.602;11.904;2022-10-16T03:32:36;48.42;;;27.55;;
62574;SDS011;53112;45.602;11.904;2022-10-16T03:35:02;53.95;;;32.30;;
62574;SDS011;53112;45.602;11.904;2022-10-16T03:37:28;57.10;;;33.30;;
62574;SDS011;53112;45.602;11.904;2022-10-16T03:39:54;58.88;;;34.13;;
62574;SDS011;53112;45.602;11.904;2022-10-16T03:42:20;56.35;;;34.80;;
62574;SDS011;53112;45.602;11.904;2022-10-16T03:44:46;59.85;;;34.20;;
62574;SDS011;53112;45.602;11.904;2022-10-16T03:47:11;63.95;;;37.67;;
62574;SDS011;53112;45.602;11.904;2022-10-16T03:49:37;64.60;;;38.28;;
62574;SDS011;53112;45.602;11.904;2022-10-16T03:52:04;58.85;;;34.72;;
62574;SDS011;53112;45.602;11.904;2022-10-16T03:54:29;57.20;;;32.70;;
62574;SDS011;53112;45.602;11.904;2022-10-16T03:56:55;63.15;;;37.08;;
62574;SDS011;53112;45.602;11.904;2022-10-16T03:59:21;64.05;;;36.72;;
62574;SDS011;53112;45.602;11.904;2022-10-16T04:01:47;63.60;;;36.35;;
62574;SDS011;53112;45.602;11.904;2022-10-16T04:04:13;63.28;;;38.13;;
62574;SDS011;53112;45.602;11.904;2022-10-16T04:06:39;64.70;;;38.20;;
62574;SDS011;53112;45.602;11.904;2022-10-16T04:09:05;65.07;;;37.17;;
62574;SDS011;53112;45.602;11.904;2022-10-16T04:11:31;55.55;;;33.58;;
62574;SDS011;53112;45.602;11.904;2022-10-16T04:13:56;59.15;;;34.70;;
62574;SDS011;53112;45.602;11.904;2022-10-16T04:16:22;59.15;;;34.33;;
62574;SDS011;53112;45.602;11.904;2022-10-16T04:18:48;56.53;;;34.05;;
62574;SDS011;53112;45.602;11.904;2022-10-16T04:21:14;61.58;;;36.17;;
62574;SDS011;53112;45.602;11.904;2022-10-16T04:23:40;59.58;;;33.58;;
62574;SDS011;53112;45.602;11.904;2022-10-16T04:26:07;68.55;;;37.92;;
62574;SDS011;53112;45.602;11.904;2022-10-16T04:28:32;63.20;;;37.05;;
62574;SDS011;53112;45.602;11.904;2022-10-16T04:30:58;60.80;;;35.22;;
62574;SDS011;53112;45.602;11.904;2022-10-16T04:33:24;65.18;;;36.60;;
62574;SDS011;53112;45.602;11.904;2022-10-16T04:35:57;60.97;;;34.33;;
62574;SDS011;53112;45.602;11.904;2022-10-16T04:38:24;57.28;;;33.75;;
62574;SDS011;53112;45.602;11.904;2022-10-16T04:40:50;51.25;;;31.58;;
62574;SDS011;53112;45.602;11.904;2022-10-16T04:43:17;51.45;;;30.73;;
62574;SDS011;53112;45.602;11.904;2022-10-16T04:45:43;53.67;;;30.23;;
62574;SDS011;53112;45.602;11.904;2022-10-16T04:48:09;47.75;;;28.90;;
62574;SDS011;53112;45.602;11.904;2022-10-16T04:50:35;48.60;;;28.75;;
62574;SDS011;53112;45.602;11.904;2022-10-16T04:53:01;44.60;;;26.67;;
62574;SDS011;53112;45.602;11.904;2022-10-16T04:55:27;53.17;;;31.30;;
62574;SDS011;53112;45.602;11.904;2022-10-16T04:57:53;53.40;;;31.23;;
62574;SDS011;53112;45.602;11.904;2022-10-16T05:00:20;46.75;;;28.15;;
62574;SDS011;53112;45.602;11.904;2022-10-16T05:02:49;51.50;;;29.27;;
62574;SDS011;53112;45.602;11.904;2022-10-16T05:05:15;50.35;;;28.48;;
62574;SDS011;53112;45.602;11.904;2022-10-16T05:07:41;51.53;;;29.55;;
62574;SDS011;53112;45.602;11.904;2022-10-16T05:10:07;51.28;;;29.48;;
62574;SDS011;53112;45.602;11.904;2022-10-16T05:12:33;48.05;;;28.98;;
62574;SDS011;53112;45.602;11.904;2022-10-16T05:15:05;46.53;;;28.00;;
62574;SDS011;53112;45.602;11.904;2022-10-16T05:17:31;47.08;;;28.50;;
62574;SDS011;53112;45.602;11.904;2022-10-16T05:19:57;55.72;;;31.27;;
62574;SDS011;53112;45.602;11.904;2022-10-16T05:22:23;53.45;;;31.63;;
62574;SDS011;53112;45.602;11.904;2022-10-16T05:24:49;45.78;;;27.80;;
62574;SDS011;53112;45.602;11.904;2022-10-16T05:27:15;45.22;;;27.17;;
62574;SDS011;53112;45.602;11.904;2022-10-16T05:29:47;47.40;;;28.48;;
62574;SDS011;53112;45.602;11.904;2022-10-16T05:32:14;45.63;;;27.58;;
62574;SDS011;53112;45.602;11.904;2022-10-16T05:34:41;46.22;;;27.73;;
62574;SDS011;53112;45.602;11.904;2022-10-16T05:37:08;45.13;;;26.80;;
62574;SDS011;53112;45.602;11.904;2022-10-16T05:39:34;43.17;;;25.65;;
62574;SDS011;53112;45.602;11.904;2022-10-16T05:42:02;42.97;;;25.15;;
62574;SDS011;53112;45.602;11.904;2022-10-16T05:44:28;45.42;;;25.83;;
62574;SDS011;53112;45.602;11.904;2022-10-16T05:46:54;43.88;;;27.00;;
62574;SDS011;53112;45.602;11.904;2022-10-16T05:49:20;43.78;;;26.65;;
62574;SDS011;53112;45.602;11.904;2022-10-16T05:51:46;48.70;;;28.15;;
62574;SDS011;53112;45.602;11.904;2022-10-16T05:54:12;46.00;;;27.63;;
62574;SDS011;53112;45.602;11.904;2022-10-16T05:56:38;45.72;;;26.50;;
62574;SDS011;53112;45.602;11.904;2022-10-16T05:59:04;44.90;;;26.92;;
62574;SDS011;53112;45.602;11.904;2022-10-16T06:01:31;40.50;;;25.88;;
62574;SDS011;53112;45.602;11.904;2022-10-16T06:03:57;42.50;;;26.60;;
62574;SDS011;53112;45.602;11.904;2022-10-16T06:06:24;40.60;;;24.83;;
62574;SDS011;53112;45.602;11.904;2022-10-16T06:08:53;40.60;;;23.98;;
62574;SDS011;53112;45.602;11.904;2022-10-16T06:11:24;43.97;;;25.63;;
62574;SDS011;53112;45.602;11.904;2022-10-16T06:13:53;45.63;;;26.20;;
62574;SDS011;53112;45.602;11.904;2022-10-16T06:16:23;38.63;;;23.85;;
62574;SDS011;53112;45.602;11.904;2022-10-16T06:18:51;42.42;;;25.80;;
62574;SDS011;53112;45.602;11.904;2022-10-16T06:21:19;39.78;;;24.30;;
62574;SDS011;53112;45.602;11.904;2022-10-16T06:23:47;40.55;;;24.80;;
62574;SDS011;53112;45.602;11.904;2022-10-16T06:26:14;33.95;;;21.73;;
62574;SDS011;53112;45.602;11.904;2022-10-16T06:28:42;36.90;;;23.30;;
62574;SDS011;53112;45.602;11.904;2022-10-16T06:31:09;40.15;;;23.52;;
62574;SDS011;53112;45.602;11.904;2022-10-16T06:33:36;41.40;;;25.88;;
62574;SDS011;53112;45.602;11.904;2022-10-16T06:36:07;44.15;;;26.55;;
62574;SDS011;53112;45.602;11.904;2022-10-16T06:38:36;42.90;;;24.90;;
62574;SDS011;53112;45.602;11.904;2022-10-16T06:41:03;48.60;;;27.35;;
62574;SDS011;53112;45.602;11.904;2022-10-16T06:43:30;47.88;;;28.80;;
62574;SDS011;53112;45.602;11.904;2022-10-16T06:46:03;38.72;;;24.85;;
62574;SDS011;53112;45.602;11.904;2022-10-16T06:48:32;42.70;;;26.38;;
62574;SDS011;53112;45.602;11.904;2022-10-16T06:50:59;46.55;;;28.90;;
62574;SDS011;53112;45.602;11.904;2022-10-16T06:53:26;50.92;;;29.40;;
62574;SDS011;53112;45.602;11.904;2022-10-16T06:55:54;47.63;;;28.88;;
62574;SDS011;53112;45.602;11.904;2022-10-16T06:58:20;48.83;;;29.42;;
62574;SDS011;53112;45.602;11.904;2022-10-16T07:00:46;45.85;;;28.80;;
62574;SDS011;53112;45.602;11.904;2022-10-16T07:03:13;47.97;;;29.25;;
62574;SDS011;53112;45.602;11.904;2022-10-16T07:05:40;49.90;;;32.03;;
62574;SDS011;53112;45.602;11.904;2022-10-16T07:08:07;47.97;;;30.73;;
62574;SDS011;53112;45.602;11.904;2022-10-16T07:10:34;50.38;;;30.75;;
62574;SDS011;53112;45.602;11.904;2022-10-16T07:13:00;49.55;;;29.92;;
62574;SDS011;53112;45.602;11.904;2022-10-16T07:15:27;47.20;;;30.55;;
62574;SDS011;53112;45.602;11.904;2022-10-16T07:17:53;44.72;;;28.67;;
62574;SDS011;53112;45.602;11.904;2022-10-16T07:20:19;47.00;;;30.05;;
62574;SDS011;53112;45.602;11.904;2022-10-16T07:22:45;49.95;;;31.42;;
62574;SDS011;53112;45.602;11.904;2022-10-16T07:25:11;50.70;;;32.38;;
62574;SDS011;53112;45.602;11.904;2022-10-16T07:27:37;51.15;;;31.65;;
62574;SDS011;53112;45.602;11.904;2022-10-16T07:30:04;49.33;;;31.02;;
62574;SDS011;53112;45.602;11.904;2022-10-16T07:32:31;50.03;;;31.90;;
62574;SDS011;53112;45.602;11.904;2022-10-16T07:34:57;50.80;;;32.25;;
62574;SDS011;53112;45.602;11.904;2022-10-16T07:37:23;47.95;;;30.25;;
62574;SDS011;53112;45.602;11.904;2022-10-16T07:39:49;49.90;;;31.58;;
62574;SDS011;53112;45.602;11.904;2022-10-16T07:42:15;52.13;;;33.88;;
62574;SDS011;53112;45.602;11.904;2022-10-16T07:44:41;50.50;;;31.08;;
62574;SDS011;53112;45.602;11.904;2022-10-16T07:47:07;48.45;;;30.73;;
62574;SDS011;53112;45.602;11.904;2022-10-16T07:49:33;50.63;;;32.42;;
62574;SDS011;53112;45.602;11.904;2022-10-16T07:51:59;48.67;;;30.15;;
62574;SDS011;53112;45.602;11.904;2022-10-16T07:54:25;47.85;;;31.05;;
62574;SDS011;53112;45.602;11.904;2022-10-16T07:56:51;50.28;;;30.40;;
62574;SDS011;53112;45.602;11.904;2022-10-16T07:59:17;47.75;;;30.92;;
62574;SDS011;53112;45.602;11.904;2022-10-16T08:01:42;46.42;;;28.45;;
62574;SDS011;53112;45.602;11.904;2022-10-16T08:04:09;48.30;;;30.67;;
62574;SDS011;53112;45.602;11.904;2022-10-16T08:06:36;47.85;;;30.92;;
62574;SDS011;53112;45.602;11.904;2022-10-16T08:09:04;51.47;;;31.98;;
62574;SDS011;53112;45.602;11.904;2022-10-16T08:11:31;47.05;;;31.30;;
62574;SDS011;53112;45.602;11.904;2022-10-16T08:13:57;49.20;;;31.20;;
62574;SDS011;53112;45.602;11.904;2022-10-16T08:16:23;47.35;;;30.85;;
62574;SDS011;53112;45.602;11.904;2022-10-16T08:18:49;48.25;;;31.08;;
62574;SDS011;53112;45.602;11.904;2022-10-16T08:21:18;48.00;;;30.83;;
62574;SDS011;53112;45.602;11.904;2022-10-16T08:23:46;48.03;;;30.55;;
62574;SDS011;53112;45.602;11.904;2022-10-16T08:26:12;48.22;;;31.55;;
62574;SDS011;53112;45.602;11.904;2022-10-16T08:28:39;44.63;;;29.05;;
62574;SDS011;53112;45.602;11.904;2022-10-16T08:31:12;44.00;;;30.00;;
62574;SDS011;53112;45.602;11.904;2022-10-16T08:33:40;46.40;;;30.45;;
62574;SDS011;53112;45.602;11.904;2022-10-16T08:36:08;46.50;;;30.02;;
62574;SDS011;53112;45.602;11.904;2022-10-16T08:38:36;42.10;;;27.88;;
62574;SDS011;53112;45.602;11.904;2022-10-16T08:46:15;38.83;;;26.98;;
62574;SDS011;53112;45.602;11.904;2022-10-16T08:49:05;39.30;;;25.40;;
62574;SDS011;53112;45.602;11.904;2022-10-16T08:51:38;43.83;;;29.40;;
62574;SDS011;53112;45.602;11.904;2022-10-16T08:54:06;43.50;;;28.38;;
62574;SDS011;53112;45.602;11.904;2022-10-16T08:56:48;44.03;;;29.58;;
62574;SDS011;53112;45.602;11.904;2022-10-16T08:59:14;37.00;;;25.63;;
62574;SDS011;53112;45.602;11.904;2022-10-16T09:01:45;37.03;;;25.20;;
62574;SDS011;53112;45.602;11.904;2022-10-16T09:07:21;42.60;;;28.10;;
62574;SDS011;53112;45.602;11.904;2022-10-16T09:17:38;36.03;;;25.00;;
62574;SDS011;53112;45.602;11.904;2022-10-16T09:23:19;39.78;;;27.02;;
62574;SDS011;53112;45.602;11.904;2022-10-16T09:25:48;39.13;;;26.33;;
62574;SDS011;53112;45.602;11.904;2022-10-16T09:28:16;42.15;;;28.88;;
62574;SDS011;53112;45.602;11.904;2022-10-16T09:30:44;41.22;;;27.27;;
62574;SDS011;53112;45.602;11.904;2022-10-16T09:33:11;37.05;;;25.77;;
62574;SDS011;53112;45.602;11.904;2022-10-16T09:35:45;38.35;;;25.73;;
62574;SDS011;53112;45.602;11.904;2022-10-16T09:40:51;35.72;;;25.38;;
62574;SDS011;53112;45.602;11.904;2022-10-16T09:43:30;40.00;;;27.33;;
62574;SDS011;53112;45.602;11.904;2022-10-16T09:46:07;35.55;;;24.25;;
62574;SDS011;53112;45.602;11.904;2022-10-16T09:48:54;38.00;;;26.02;;
62574;SDS011;53112;45.602;11.904;2022-10-16T09:51:32;32.63;;;22.55;;
62574;SDS011;53112;45.602;11.904;2022-10-16T09:54:01;35.55;;;24.38;;
62574;SDS011;53112;45.602;11.904;2022-10-16T09:56:34;35.33;;;24.13;;
62574;SDS011;53112;45.602;11.904;2022-10-16T09:59:10;33.83;;;23.77;;
62574;SDS011;53112;45.602;11.904;2022-10-16T10:01:39;29.05;;;21.38;;
62574;SDS011;53112;45.602;11.904;2022-10-16T10:04:14;29.52;;;21.23;;
62574;SDS011;53112;45.602;11.904;2022-10-16T10:06:43;24.02;;;18.30;;
62574;SDS011;53112;45.602;11.904;2022-10-16T10:09:23;28.63;;;19.83;;
62574;SDS011;53112;45.602;11.904;2022-10-16T10:11:58;29.05;;;21.30;;
62574;SDS011;53112;45.602;11.904;2022-10-16T10:14:37;32.15;;;22.13;;
62574;SDS011;53112;45.602;11.904;2022-10-16T10:19:52;33.33;;;22.55;;
62574;SDS011;53112;45.602;11.904;2022-10-16T10:22:39;29.15;;;20.42;;
62574;SDS011;53112;45.602;11.904;2022-10-16T10:35:56;26.35;;;19.45;;
62574;SDS011;53112;45.602;11.904;2022-10-16T10:38:53;26.95;;;20.45;;
62574;SDS011;53112;45.602;11.904;2022-10-16T10:46:51;28.02;;;19.92;;
62574;SDS011;53112;45.602;11.904;2022-10-16T10:54:55;26.15;;;18.15;;
62574;SDS011;53112;45.602;11.904;2022-10-16T11:06:55;25.30;;;18.73;;
62574;SDS011;53112;45.602;11.904;2022-10-16T11:14:38;25.70;;;17.98;;
62574;SDS011;53112;45.602;11.904;2022-10-16T11:17:10;24.23;;;17.17;;
62574;SDS011;53112;45.602;11.904;2022-10-16T11:19:50;21.30;;;16.35;;
62574;SDS011;53112;45.602;11.904;2022-10-16T11:24:58;27.52;;;17.70;;
62574;SDS011;53112;45.602;11.904;2022-10-16T11:33:46;24.40;;;18.30;;
62574;SDS011;53112;45.602;11.904;2022-10-16T11:39:29;24.17;;;17.10;;
62574;SDS011;53112;45.602;11.904;2022-10-16T11:49:44;18.17;;;14.52;;
62574;SDS011;53112;45.602;11.904;2022-10-16T11:55:09;21.70;;;17.27;;
62574;SDS011;53112;45.602;11.904;2022-10-16T11:58:03;23.13;;;18.02;;
62574;SDS011;53112;45.602;11.904;2022-10-16T12:00:39;21.27;;;15.98;;
62574;SDS011;53112;45.602;11.904;2022-10-16T12:03:20;26.45;;;18.67;;
62574;SDS011;53112;45.602;11.904;2022-10-16T12:08:40;21.35;;;15.85;;
62574;SDS011;53112;45.602;11.904;2022-10-16T12:11:09;18.88;;;15.13;;
62574;SDS011;53112;45.602;11.904;2022-10-16T12:16:38;19.02;;;14.88;;
62574;SDS011;53112;45.602;11.904;2022-10-16T12:19:16;17.40;;;14.57;;
62574;SDS011;53112;45.602;11.904;2022-10-16T12:21:43;20.20;;;15.20;;
62574;SDS011;53112;45.602;11.904;2022-10-16T12:24:52;23.08;;;17.30;;
62574;SDS011;53112;45.602;11.904;2022-10-16T12:27:02;19.33;;;15.18;;
62574;SDS011;53112;45.602;11.904;2022-10-16T12:29:48;22.10;;;16.17;;
62574;SDS011;53112;45.602;11.904;2022-10-16T12:35:16;17.42;;;14.90;;
62574;SDS011;53112;45.602;11.904;2022-10-16T12:37:47;19.45;;;15.32;;
62574;SDS011;53112;45.602;11.904;2022-10-16T12:40:22;16.55;;;14.02;;
62574;SDS011;53112;45.602;11.904;2022-10-16T12:42:52;20.35;;;16.10;;
62574;SDS011;53112;45.602;11.904;2022-10-16T12:45:28;23.70;;;17.58;;
62574;SDS011;53112;45.602;11.904;2022-10-16T12:47:59;20.60;;;16.10;;
62574;SDS011;53112;45.602;11.904;2022-10-16T12:50:37;21.98;;;17.45;;
62574;SDS011;53112;45.602;11.904;2022-10-16T12:53:19;19.95;;;14.90;;
62574;SDS011;53112;45.602;11.904;2022-10-16T12:56:12;17.98;;;14.70;;
62574;SDS011;53112;45.602;11.904;2022-10-16T12:58:51;20.40;;;14.43;;
62574;SDS011;53112;45.602;11.904;2022-10-16T13:04:25;25.77;;;19.98;;
62574;SDS011;53112;45.602;11.904;2022-10-16T13:07:33;22.38;;;17.58;;
62574;SDS011;53112;45.602;11.904;2022-10-16T13:10:22;20.85;;;15.50;;
62574;SDS011;53112;45.602;11.904;2022-10-16T13:16:03;17.35;;;14.80;;
62574;SDS011;53112;45.602;11.904;2022-10-16T13:21:04;21.63;;;16.88;;
62574;SDS011;53112;45.602;11.904;2022-10-16T13:28:47;18.85;;;14.75;;
62574;SDS011;53112;45.602;11.904;2022-10-16T13:31:18;21.83;;;16.00;;
62574;SDS011;53112;45.602;11.904;2022-10-16T13:33:47;20.55;;;15.57;;
62574;SDS011;53112;45.602;11.904;2022-10-16T13:36:19;21.55;;;15.88;;
62574;SDS011;53112;45.602;11.904;2022-10-16T13:38:47;19.55;;;14.60;;
62574;SDS011;53112;45.602;11.904;2022-10-16T13:41:17;22.17;;;16.60;;
62574;SDS011;53112;45.602;11.904;2022-10-16T13:43:45;18.92;;;15.27;;
62574;SDS011;53112;45.602;11.904;2022-10-16T13:48:41;19.75;;;14.65;;
62574;SDS011;53112;45.602;11.904;2022-10-16T13:51:14;21.67;;;17.20;;
62574;SDS011;53112;45.602;11.904;2022-10-16T13:53:42;17.95;;;14.35;;
62574;SDS011;53112;45.602;11.904;2022-10-16T13:56:14;19.65;;;15.77;;
62574;SDS011;53112;45.602;11.904;2022-10-16T13:58:42;23.33;;;17.75;;
62574;SDS011;53112;45.602;11.904;2022-10-16T14:01:22;23.35;;;15.45;;
62574;SDS011;53112;45.602;11.904;2022-10-16T14:03:50;18.15;;;14.27;;
62574;SDS011;53112;45.602;11.904;2022-10-16T14:06:18;19.90;;;15.35;;
62574;SDS011;53112;45.602;11.904;2022-10-16T14:08:50;19.17;;;14.25;;
62574;SDS011;53112;45.602;11.904;2022-10-16T14:11:46;21.42;;;14.57;;
62574;SDS011;53112;45.602;11.904;2022-10-16T14:14:17;17.98;;;14.38;;
62574;SDS011;53112;45.602;11.904;2022-10-16T14:16:44;16.42;;;13.73;;
62574;SDS011;53112;45.602;11.904;2022-10-16T14:19:25;18.75;;;15.00;;
62574;SDS011;53112;45.602;11.904;2022-10-16T14:21:53;19.17;;;13.73;;
62574;SDS011;53112;45.602;11.904;2022-10-16T14:24:24;18.23;;;14.80;;
62574;SDS011;53112;45.602;11.904;2022-10-16T14:27:00;22.27;;;17.42;;
62574;SDS011;53112;45.602;11.904;2022-10-16T14:29:27;17.17;;;14.02;;
62574;SDS011;53112;45.602;11.904;2022-10-16T14:32:00;18.50;;;15.00;;
62574;SDS011;53112;45.602;11.904;2022-10-16T14:34:29;18.50;;;15.00;;
62574;SDS011;53112;45.602;11.904;2022-10-16T14:37:00;24.80;;;17.58;;
62574;SDS011;53112;45.602;11.904;2022-10-16T14:39:48;15.27;;;12.57;;
62574;SDS011;53112;45.602;11.904;2022-10-16T14:42:18;18.60;;;13.85;;
62574;SDS011;53112;45.602;11.904;2022-10-16T14:44:48;21.00;;;15.60;;
62574;SDS011;53112;45.602;11.904;2022-10-16T14:47:20;20.85;;;16.60;;
62574;SDS011;53112;45.602;11.904;2022-10-16T14:49:51;22.65;;;16.55;;
62574;SDS011;53112;45.602;11.904;2022-10-16T14:52:24;28.38;;;18.02;;
62574;SDS011;53112;45.602;11.904;2022-10-16T14:54:50;17.90;;;14.07;;
62574;SDS011;53112;45.602;11.904;2022-10-16T14:57:23;21.50;;;16.35;;
62574;SDS011;53112;45.602;11.904;2022-10-16T14:59:52;24.20;;;17.63;;
62574;SDS011;53112;45.602;11.904;2022-10-16T15:02:31;24.45;;;18.10;;
62574;SDS011;53112;45.602;11.904;2022-10-16T15:05:11;20.33;;;15.05;;
62574;SDS011;53112;45.602;11.904;2022-10-16T15:07:42;16.33;;;13.68;;
62574;SDS011;53112;45.602;11.904;2022-10-16T15:10:09;16.20;;;13.00;;
62574;SDS011;53112;45.602;11.904;2022-10-16T15:12:36;14.32;;;11.93;;
62574;SDS011;53112;45.602;11.904;2022-10-16T15:15:05;16.00;;;12.60;;
62574;SDS011;53112;45.602;11.904;2022-10-16T15:17:48;18.42;;;14.05;;
62574;SDS011;53112;45.602;11.904;2022-10-16T15:20:18;20.77;;;14.98;;
62574;SDS011;53112;45.602;11.904;2022-10-16T15:22:45;20.13;;;14.60;;
62574;SDS011;53112;45.602;11.904;2022-10-16T15:25:27;22.90;;;14.95;;
62574;SDS011;53112;45.602;11.904;2022-10-16T15:28:01;18.83;;;14.07;;
62574;SDS011;53112;45.602;11.904;2022-10-16T15:30:29;17.05;;;12.55;;
62574;SDS011;53112;45.602;11.904;2022-10-16T15:32:55;17.90;;;13.50;;
62574;SDS011;53112;45.602;11.904;2022-10-16T15:35:21;18.15;;;13.45;;
62574;SDS011;53112;45.602;11.904;2022-10-16T15:37:47;20.08;;;14.95;;
62574;SDS011;53112;45.602;11.904;2022-10-16T15:40:15;19.90;;;15.38;;
62574;SDS011;53112;45.602;11.904;2022-10-16T15:42:43;19.95;;;14.95;;
62574;SDS011;53112;45.602;11.904;2022-10-16T15:45:09;19.63;;;14.40;;
62574;SDS011;53112;45.602;11.904;2022-10-16T15:47:37;18.80;;;14.40;;
62574;SDS011;53112;45.602;11.904;2022-10-16T15:50:04;18.10;;;13.70;;
62574;SDS011;53112;45.602;11.904;2022-10-16T15:52:31;17.42;;;13.80;;
62574;SDS011;53112;45.602;11.904;2022-10-16T15:54:57;18.75;;;14.43;;
62574;SDS011;53112;45.602;11.904;2022-10-16T15:57:24;19.23;;;14.05;;
62574;SDS011;53112;45.602;11.904;2022-10-16T15:59:52;18.58;;;13.48;;
62574;SDS011;53112;45.602;11.904;2022-10-16T16:02:18;17.83;;;13.25;;
62574;SDS011;53112;45.602;11.904;2022-10-16T16:04:44;20.85;;;15.38;;
62574;SDS011;53112;45.602;11.904;2022-10-16T16:07:10;19.90;;;15.57;;
62574;SDS011;53112;45.602;11.904;2022-10-16T16:09:36;17.65;;;14.23;;
62574;SDS011;53112;45.602;11.904;2022-10-16T16:12:03;19.75;;;14.60;;
62574;SDS011;53112;45.602;11.904;2022-10-16T16:14:29;19.05;;;14.57;;
62574;SDS011;53112;45.602;11.904;2022-10-16T16:16:55;19.67;;;15.07;;
62574;SDS011;53112;45.602;11.904;2022-10-16T16:19:21;22.60;;;15.85;;
62574;SDS011;53112;45.602;11.904;2022-10-16T16:21:48;20.73;;;16.38;;
62574;SDS011;53112;45.602;11.904;2022-10-16T16:24:15;20.40;;;15.52;;
62574;SDS011;53112;45.602;11.904;2022-10-16T16:26:41;20.02;;;15.23;;
62574;SDS011;53112;45.602;11.904;2022-10-16T16:29:12;19.92;;;15.40;;
62574;SDS011;53112;45.602;11.904;2022-10-16T16:31:41;20.75;;;16.02;;
62574;SDS011;53112;45.602;11.904;2022-10-16T16:34:08;20.95;;;14.90;;